Main page
METAR-TAF:

METAR-TAF

Airports :

Libertador General José de San Martín Airport

Posadas, Argentina

latitude: 27-22S, longitude: 055-58W, elevation: 131 m

Current weather observation

The report was made 17 minutes ago, at 04:00 UTC
Wind 8 kt from the Southeast
Temperature 23°C
Humidity 50%
Pressure 1010 hPa
Visibility 10 km or more
no clouds below 1500 m and no cumulonimbus

METAR: SARP 030400Z 14008KT CAVOK 23/12 Q1010

Time: 01:17 (04:17 UTC)

Forecast

The report was made 5 hours and 17 minutes ago, at 23:00 UTC
Forecast valid from 03 at 00 UTC to 03 at 24 UTC
Wind 10 kt from the East
Visibility 10 km or more
no clouds below 1500 m and no cumulonimbus

TAF: SARP 022300Z 0300/0324 09010KT CAVOK TX33/0319Z TN17/0310Z

Weather observations and forecasts of more than 4000 airports (METAR and TAF reports).

The available stations are represented by yellow and red dots on the map.

Hover mouse over dot to see the name of the station.

Then click to see weather observations and forecasts.

To change the map : click on the green buttons with a black cross to zoom in, on the green button with a dash to zoom out, or on the green arrows for adjacent maps.


METAR-TAF: